createdAt,value
2022-10-14T00:01:27.022Z,101371.34
2022-10-14T00:03:56.441Z,101367.94
2022-10-14T00:06:30.079Z,101370.63
2022-10-14T00:09:01.960Z,101366.06
2022-10-14T00:11:33.022Z,101359.91
2022-10-14T00:14:04.240Z,101362.63
2022-10-14T00:16:36.294Z,101348.72
2022-10-14T00:19:05.309Z,101336.56
2022-10-14T00:21:36.091Z,101317.22
2022-10-14T00:24:04.809Z,101328.03
2022-10-14T00:26:35.153Z,101323.75
2022-10-14T00:29:06.357Z,101313.97
2022-10-14T00:31:35.817Z,101271.63
2022-10-14T00:34:04.358Z,101301.50
2022-10-14T00:36:35.805Z,101314.72
2022-10-14T00:39:04.165Z,101305.75
2022-10-14T00:41:36.212Z,101304.88
2022-10-14T00:44:08.260Z,101309.19
2022-10-14T00:46:39.064Z,101299.41
2022-10-14T00:49:12.781Z,101280.00
2022-10-14T00:51:46.700Z,101291.50
2022-10-14T00:54:17.943Z,101294.97
2022-10-14T00:56:49.132Z,101299.28
2022-10-14T00:59:17.759Z,101305.19
2022-10-14T01:01:46.039Z,101303.28
2022-10-14T01:04:14.298Z,101308.63
2022-10-14T01:06:54.629Z,101315.53
2022-10-14T01:09:32.131Z,101311.09
2022-10-14T01:12:28.065Z,101309.19
2022-10-14T01:15:10.980Z,101263.34
2022-10-14T01:17:52.934Z,101305.53
2022-10-14T01:20:44.974Z,101300.19
2022-10-14T01:24:02.635Z,101304.97
2022-10-14T01:26:53.228Z,101300.66
2022-10-14T01:30:10.706Z,101293.66
2022-10-14T01:32:51.950Z,101295.06
2022-10-14T01:35:32.311Z,101296.59
2022-10-14T01:38:04.873Z,101289.59
2022-10-14T01:40:37.588Z,101290.44
2022-10-14T01:43:06.802Z,101286.94
2022-10-14T01:45:38.418Z,101280.09
2022-10-14T01:48:07.740Z,101270.28
2022-10-14T01:50:38.614Z,101275.72
2022-10-14T01:53:11.638Z,101272.09
2022-10-14T01:55:45.614Z,101270.28
2022-10-14T01:58:16.708Z,101238.81
2022-10-14T02:00:47.894Z,101250.25
2022-10-14T02:03:16.426Z,101261.78
2022-10-14T02:05:50.273Z,101260.97
2022-10-14T02:08:29.669Z,101260.91
2022-10-14T02:11:08.778Z,101261.69
2022-10-14T02:13:54.871Z,101259.75
2022-10-14T02:16:37.987Z,101265.06
2022-10-14T02:19:20.567Z,101253.66
2022-10-14T02:21:55.274Z,101254.59
2022-10-14T02:24:31.823Z,101248.44
2022-10-14T02:27:07.175Z,101246.66
2022-10-14T02:29:37.736Z,101241.41
2022-10-14T02:32:08.711Z,101239.50
2022-10-14T02:34:39.015Z,101234.94
2022-10-14T02:37:11.464Z,101240.19
2022-10-14T02:39:45.680Z,101232.09
2022-10-14T02:42:14.034Z,101229.34
2022-10-14T02:44:54.654Z,101228.41
2022-10-14T02:47:25.736Z,101223.13
2022-10-14T02:49:54.910Z,101226.44
2022-10-14T02:52:25.314Z,101222.00
2022-10-14T02:54:54.591Z,101205.22
2022-10-14T02:57:23.828Z,101206.97
2022-10-14T02:59:52.037Z,101214.19
2022-10-14T03:02:20.444Z,101199.84
2022-10-14T03:04:50.744Z,101195.75
2022-10-14T03:07:19.037Z,101190.53
2022-10-14T03:09:50.783Z,101205.34
2022-10-14T03:12:19.171Z,101192.13
2022-10-14T03:14:47.559Z,101184.34
2022-10-14T03:17:18.195Z,101187.00
2022-10-14T03:19:47.347Z,101187.47
2022-10-14T03:22:18.224Z,101179.66
2022-10-14T03:24:46.549Z,101175.91
2022-10-14T03:27:27.935Z,101184.00
2022-10-14T03:30:02.099Z,101176.97
2022-10-14T03:32:30.447Z,101168.03
2022-10-14T03:35:18.931Z,101164.19
2022-10-14T03:37:53.194Z,101161.66
2022-10-14T03:40:23.455Z,101158.13
2022-10-14T03:42:52.627Z,101153.50
2022-10-14T03:45:22.839Z,101159.63
2022-10-14T03:47:51.027Z,101161.44
2022-10-14T03:50:19.372Z,101153.31
2022-10-14T03:52:55.563Z,101143.88
2022-10-14T03:55:33.415Z,101138.59
2022-10-14T03:58:02.587Z,101134.16
2022-10-14T04:00:32.230Z,101138.75
2022-10-14T04:03:15.019Z,101142.28
2022-10-14T04:05:45.123Z,101134.28
2022-10-14T04:08:19.404Z,101136.81
2022-10-14T04:10:54.759Z,101127.97
2022-10-14T04:13:24.352Z,101133.41
2022-10-14T04:15:52.761Z,101132.50
2022-10-14T04:18:25.406Z,101125.25
2022-10-14T04:20:56.978Z,101125.31
2022-10-14T04:23:27.958Z,101119.25
2022-10-14T04:26:05.677Z,101121.09
2022-10-14T04:28:35.655Z,101120.16
2022-10-14T04:31:11.201Z,101119.34
2022-10-14T04:33:51.854Z,101119.22
2022-10-14T04:36:26.739Z,101115.56
2022-10-14T04:38:58.645Z,101116.50
2022-10-14T04:41:26.871Z,101105.81
2022-10-14T04:43:57.466Z,101101.03
2022-10-14T04:46:38.003Z,101113.38
2022-10-14T04:49:06.631Z,101102.47
2022-10-14T04:51:40.342Z,101107.84
2022-10-14T04:54:20.291Z,101093.63
2022-10-14T04:56:56.598Z,101081.44
2022-10-14T04:59:24.922Z,101084.06
2022-10-14T05:02:22.624Z,101081.22
2022-10-14T05:05:00.218Z,101060.31
2022-10-14T05:07:31.709Z,101062.72
2022-10-14T05:10:12.159Z,101066.50
2022-10-14T05:12:43.497Z,101068.75
2022-10-14T05:15:12.705Z,101029.13
2022-10-14T05:17:54.235Z,101065.91
2022-10-14T05:20:29.227Z,101060.78
2022-10-14T05:22:59.324Z,101056.31
2022-10-14T05:25:29.051Z,101052.84
2022-10-14T05:27:57.720Z,101048.38
2022-10-14T05:30:30.782Z,101039.59
2022-10-14T05:33:02.337Z,101045.66
2022-10-14T05:35:57.016Z,101043.06
2022-10-14T05:38:20.262Z,101007.94
2022-10-14T05:40:55.132Z,101034.25
2022-10-14T05:43:30.994Z,101033.53
2022-10-14T05:46:01.249Z,101038.00
2022-10-14T05:48:32.896Z,101035.13
2022-10-14T05:51:03.337Z,101033.41
2022-10-14T05:53:33.779Z,101037.81
2022-10-14T05:56:10.328Z,101034.31
2022-10-14T05:58:40.753Z,101025.34
2022-10-14T06:01:11.799Z,101033.97
2022-10-14T06:03:42.475Z,101019.66
2022-10-14T06:06:15.013Z,101028.63
2022-10-14T06:08:44.085Z,101026.50
2022-10-14T06:11:14.132Z,101020.19
2022-10-14T06:13:42.654Z,101022.16
2022-10-14T06:16:11.949Z,100998.13
2022-10-14T06:18:40.504Z,101016.44
2022-10-14T06:21:14.220Z,101018.88
2022-10-14T06:23:42.401Z,101002.81
2022-10-14T06:26:10.775Z,101016.03
2022-10-14T06:28:40.582Z,101023.81
2022-10-14T06:31:08.861Z,101021.97
2022-10-14T06:33:37.368Z,101011.13
2022-10-14T06:36:07.042Z,101007.41
2022-10-14T06:38:35.403Z,101003.94
2022-10-14T06:41:03.704Z,101000.31
2022-10-14T06:43:31.992Z,100994.06
2022-10-14T06:46:02.071Z,101013.38
2022-10-14T06:48:30.608Z,101002.69
2022-10-14T06:51:01.002Z,100942.94
2022-10-14T06:53:29.882Z,101005.09
2022-10-14T06:56:03.876Z,100996.13
2022-10-14T06:58:33.148Z,100989.09
2022-10-14T07:01:05.382Z,101001.41
2022-10-14T07:03:38.691Z,101006.94
2022-10-14T07:06:09.066Z,101002.34
2022-10-14T07:08:37.519Z,100993.34
2022-10-14T07:11:06.840Z,100997.75
2022-10-14T07:13:35.472Z,100993.16
2022-10-14T07:16:05.511Z,100997.59
2022-10-14T07:18:33.924Z,100987.56
2022-10-14T07:21:04.599Z,100994.09
2022-10-14T07:23:32.738Z,100988.00
2022-10-14T07:26:02.035Z,100992.56
2022-10-14T07:28:30.527Z,100993.25
2022-10-14T07:31:06.563Z,100993.09
2022-10-14T07:36:09.779Z,101004.75
2022-10-14T07:38:38.866Z,100999.22
2022-10-14T07:41:16.831Z,101000.91
2022-10-14T07:43:45.973Z,100983.50
2022-10-14T07:46:18.686Z,100987.75
2022-10-14T07:48:56.761Z,100994.66
2022-10-14T07:51:26.039Z,100998.13
2022-10-14T07:53:55.009Z,100979.78
2022-10-14T07:56:23.527Z,100987.59
2022-10-14T07:58:52.534Z,101001.72
2022-10-14T08:01:24.161Z,100992.63
2022-10-14T08:03:53.365Z,100996.22
2022-10-14T08:06:22.305Z,100998.91
2022-10-14T08:08:50.739Z,100991.63
2022-10-14T08:11:22.571Z,100992.34
2022-10-14T08:13:51.660Z,100981.81
2022-10-14T08:16:24.160Z,100987.84
2022-10-14T08:18:53.321Z,100985.22
2022-10-14T08:21:22.189Z,100984.28
2022-10-14T08:23:50.497Z,100985.22
2022-10-14T08:26:23.255Z,100996.06
2022-10-14T08:28:52.338Z,100989.84
2022-10-14T08:31:22.998Z,100989.94
2022-10-14T08:33:51.311Z,100996.16
2022-10-14T08:36:21.233Z,100989.88
2022-10-14T08:38:51.822Z,100978.69
2022-10-14T08:41:27.098Z,100954.16
2022-10-14T08:44:12.378Z,100993.50
2022-10-14T08:46:51.092Z,100998.06
2022-10-14T08:49:28.032Z,100989.06
2022-10-14T08:52:02.231Z,100978.50
2022-10-14T08:54:38.076Z,100979.34
2022-10-14T08:57:07.565Z,100956.56
2022-10-14T08:59:42.027Z,100959.97
2022-10-14T09:02:25.662Z,100969.91
2022-10-14T09:04:53.909Z,100973.25
2022-10-14T09:07:22.505Z,100971.44
2022-10-14T09:09:55.666Z,100969.69
2022-10-14T09:12:29.657Z,100970.47
2022-10-14T09:15:13.061Z,100964.19
2022-10-14T09:17:49.499Z,100969.47
2022-10-14T09:20:23.495Z,100960.44
2022-10-14T09:23:07.284Z,100968.72
2022-10-14T09:25:37.455Z,100971.19
2022-10-14T09:28:06.043Z,100966.53
2022-10-14T09:30:40.542Z,100958.53
2022-10-14T09:33:18.370Z,100966.69
2022-10-14T09:35:46.805Z,100969.03
2022-10-14T09:38:15.456Z,100968.13
2022-10-14T09:40:46.411Z,100966.94
2022-10-14T09:43:21.770Z,100959.75
2022-10-14T09:45:54.938Z,100955.03
2022-10-14T09:48:34.525Z,100960.53
2022-10-14T09:51:06.620Z,100958.63
2022-10-14T09:53:41.182Z,100971.28
2022-10-14T09:56:11.253Z,100963.19
2022-10-14T09:58:45.672Z,100951.63
2022-10-14T10:01:19.014Z,100936.72
2022-10-14T10:03:51.434Z,100964.47
2022-10-14T10:06:25.621Z,100965.34
2022-10-14T10:09:00.130Z,100964.47
2022-10-14T10:11:31.227Z,100947.66
2022-10-14T10:14:16.392Z,100952.06
2022-10-14T10:16:46.049Z,100951.28
2022-10-14T10:19:31.163Z,100949.47
2022-10-14T10:22:21.842Z,100942.41
2022-10-14T10:24:52.432Z,100948.44
2022-10-14T10:27:25.641Z,100947.59
2022-10-14T10:29:55.816Z,100931.72
2022-10-14T10:32:30.231Z,100947.31
2022-10-14T10:35:15.974Z,100941.97
2022-10-14T10:38:00.537Z,100949.03
2022-10-14T10:40:33.693Z,100939.19
2022-10-14T10:43:19.838Z,100939.81
2022-10-14T10:46:05.454Z,100947.84
2022-10-14T10:48:44.293Z,100934.47
2022-10-14T10:51:18.281Z,100942.31
2022-10-14T10:54:07.914Z,100942.00
2022-10-14T10:56:43.917Z,100925.19
2022-10-14T10:59:37.441Z,100944.19
2022-10-14T11:02:56.176Z,100944.75
2022-10-14T11:05:44.706Z,100928.91
2022-10-14T11:09:05.231Z,100924.38
2022-10-14T11:11:54.863Z,100914.69
2022-10-14T11:15:03.317Z,100911.19
2022-10-14T11:20:27.363Z,100908.78
2022-10-14T11:23:34.781Z,100904.16
2022-10-14T11:26:15.717Z,100904.56
2022-10-14T11:28:53.814Z,100905.97
2022-10-14T11:31:35.157Z,100899.38
2022-10-14T11:34:29.324Z,100891.88
2022-10-14T11:37:08.574Z,100885.53
2022-10-14T11:39:50.395Z,100879.59
2022-10-14T11:42:34.033Z,100886.13
2022-10-14T11:45:49.558Z,100868.94
2022-10-14T11:48:31.294Z,100871.47
2022-10-14T11:51:08.675Z,100868.94
2022-10-14T11:53:48.870Z,100858.13
2022-10-14T11:56:32.289Z,100855.31
2022-10-14T11:59:10.558Z,100858.56
2022-10-14T12:01:45.020Z,100863.50
2022-10-14T12:04:22.281Z,100857.19
2022-10-14T12:06:58.511Z,100866.84
2022-10-14T12:12:14.922Z,100850.69
2022-10-14T12:14:48.337Z,100862.06
2022-10-14T12:17:24.263Z,100866.81
2022-10-14T12:19:53.291Z,100862.31
2022-10-14T12:22:26.074Z,100863.19
2022-10-14T12:24:56.348Z,100871.50
2022-10-14T12:27:28.835Z,100862.97
2022-10-14T12:29:58.918Z,100864.81
2022-10-14T12:32:30.047Z,100870.28
2022-10-14T12:35:02.265Z,100857.09
2022-10-14T12:37:52.690Z,100848.72
2022-10-14T12:40:27.999Z,100866.41
2022-10-14T12:43:21.570Z,100861.84
2022-10-14T12:46:04.267Z,100863.41
2022-10-14T12:48:35.953Z,100863.63
2022-10-14T12:51:15.464Z,100832.63
2022-10-14T12:53:54.169Z,100852.53
2022-10-14T12:56:36.639Z,100845.41
2022-10-14T12:59:09.229Z,100855.28
2022-10-14T13:01:39.434Z,100853.22
2022-10-14T13:04:20.017Z,100860.09
2022-10-14T13:07:47.193Z,100836.34
2022-10-14T13:10:48.528Z,100868.59
2022-10-14T13:13:52.571Z,100869.66
2022-10-14T13:17:01.045Z,100859.50
2022-10-14T13:19:47.946Z,100860.53
2022-10-14T13:22:44.014Z,100871.25
2022-10-14T13:25:18.272Z,100870.34
2022-10-14T13:28:14.360Z,100866.94
2022-10-14T13:30:56.790Z,100869.22
2022-10-14T13:33:35.981Z,100864.84
2022-10-14T13:36:14.850Z,100863.78
2022-10-14T13:38:47.257Z,100854.25
2022-10-14T13:41:28.295Z,100846.09
2022-10-14T13:44:01.215Z,100829.03
2022-10-14T13:46:35.283Z,100840.63
2022-10-14T13:51:53.454Z,100844.97
2022-10-14T13:54:24.067Z,100836.94
2022-10-14T14:02:44.086Z,100842.16
2022-10-14T14:05:19.962Z,100834.91
2022-10-14T14:08:30.056Z,100836.38
2022-10-14T14:10:57.529Z,100829.22
2022-10-14T14:13:29.550Z,100831.69
2022-10-14T14:15:58.479Z,100842.28
2022-10-14T14:18:49.462Z,100820.03
2022-10-14T14:21:28.465Z,100836.66
2022-10-14T14:23:59.170Z,100826.66
2022-10-14T14:26:29.970Z,100834.81
2022-10-14T14:28:58.204Z,100827.41
2022-10-14T14:31:48.052Z,100834.09
2022-10-14T14:34:20.467Z,100821.41
2022-10-14T14:36:55.535Z,100832.19
2022-10-14T14:39:32.233Z,100825.03
2022-10-14T14:42:02.003Z,100827.47
2022-10-14T14:44:34.529Z,100823.97
2022-10-14T14:47:04.959Z,100827.25
2022-10-14T14:49:38.085Z,100805.88
2022-10-14T14:52:08.510Z,100817.03
2022-10-14T14:54:46.102Z,100810.91
2022-10-14T14:57:19.607Z,100810.06
2022-10-14T15:00:00.259Z,100810.31
2022-10-14T15:02:29.863Z,100805.13
2022-10-14T15:05:02.952Z,100805.38
2022-10-14T15:07:33.075Z,100805.50
2022-10-14T15:10:03.517Z,100802.25
2022-10-14T15:12:34.293Z,100800.50
2022-10-14T15:15:03.238Z,100794.31
2022-10-14T15:17:34.992Z,100795.19
2022-10-14T15:20:29.684Z,100795.56
2022-10-14T15:22:59.462Z,100796.38
2022-10-14T15:25:32.212Z,100781.44
2022-10-14T15:28:01.742Z,100787.31
2022-10-14T15:30:34.944Z,100776.75
2022-10-14T15:33:14.831Z,100783.09
2022-10-14T15:35:44.117Z,100734.81
2022-10-14T15:38:19.092Z,100770.63
2022-10-14T15:40:49.198Z,100772.38
2022-10-14T15:43:24.251Z,100774.22
2022-10-14T15:46:13.446Z,100773.56
2022-10-14T15:48:47.807Z,100771.19
2022-10-14T15:51:20.739Z,100743.16
2022-10-14T15:53:50.283Z,100768.50
2022-10-14T15:56:20.907Z,100773.81
2022-10-14T15:58:49.525Z,100769.63
2022-10-14T16:01:21.562Z,100765.31
2022-10-14T16:03:51.877Z,100763.69
2022-10-14T16:06:22.640Z,100756.94
2022-10-14T16:08:52.912Z,100754.13
2022-10-14T16:11:25.137Z,100764.06
2022-10-14T16:13:53.416Z,100761.59
2022-10-14T16:16:28.151Z,100660.00
2022-10-14T16:18:56.430Z,100754.56
2022-10-14T16:21:24.648Z,100744.91
2022-10-14T16:23:54.530Z,100657.84
2022-10-14T16:26:22.899Z,100750.28
2022-10-14T16:28:51.163Z,100751.19
2022-10-14T16:31:21.298Z,100753.94
2022-10-14T16:33:54.676Z,100754.09
2022-10-14T16:36:24.958Z,100739.19
2022-10-14T16:38:54.853Z,100744.47
2022-10-14T16:41:23.177Z,100753.34
2022-10-14T16:43:51.585Z,100744.56
2022-10-14T16:46:19.968Z,100744.78
2022-10-14T16:48:49.629Z,100746.56
2022-10-14T16:51:17.964Z,100751.25
2022-10-14T16:53:48.809Z,100745.91
2022-10-14T16:56:38.333Z,100740.53
2022-10-14T16:59:08.167Z,100740.75
2022-10-14T17:01:36.506Z,100749.75
2022-10-14T17:04:07.803Z,100736.28
2022-10-14T17:06:36.077Z,100738.09
2022-10-14T17:09:04.723Z,100747.09
2022-10-14T17:11:35.003Z,100737.63
2022-10-14T17:14:03.767Z,100745.75
2022-10-14T17:16:32.011Z,100743.13
2022-10-14T17:19:00.839Z,100745.09
2022-10-14T17:21:29.855Z,100750.47
2022-10-14T17:24:02.577Z,100749.69
2022-10-14T17:26:33.765Z,100756.72
2022-10-14T17:29:02.817Z,100762.97
2022-10-14T17:31:31.978Z,100761.97
2022-10-14T17:34:00.864Z,100763.84
2022-10-14T17:36:30.847Z,100760.22
2022-10-14T17:39:00.271Z,100756.03
2022-10-14T17:41:30.772Z,100760.56
2022-10-14T17:44:02.212Z,100751.00
2022-10-14T17:46:32.172Z,100747.41
2022-10-14T17:49:03.800Z,100746.50
2022-10-14T17:51:33.493Z,100743.09
2022-10-14T17:54:04.344Z,100739.50
2022-10-14T17:56:35.459Z,100734.16
2022-10-14T17:59:07.085Z,100734.97
2022-10-14T18:01:43.860Z,100727.16
2022-10-14T18:04:24.140Z,100728.94
2022-10-14T18:06:52.590Z,100714.69
2022-10-14T18:09:21.159Z,100715.72
2022-10-14T18:14:40.982Z,100719.22
2022-10-14T18:17:10.869Z,100729.91
2022-10-14T18:19:40.779Z,100724.63
2022-10-14T18:22:11.121Z,100700.31
2022-10-14T18:24:39.696Z,100715.94
2022-10-14T18:27:08.079Z,100719.56
2022-10-14T18:29:36.420Z,100717.69
2022-10-14T18:32:07.167Z,100707.75
2022-10-14T18:34:35.597Z,100706.19
2022-10-14T18:37:03.814Z,100715.94
2022-10-14T18:39:32.194Z,100718.72
2022-10-14T18:42:00.383Z,100732.09
2022-10-14T18:44:28.637Z,100733.03
2022-10-14T18:46:56.897Z,100726.84
2022-10-14T18:49:26.614Z,100718.81
2022-10-14T18:51:55.353Z,100712.69
2022-10-14T18:54:25.175Z,100713.69
2022-10-14T18:56:54.828Z,100711.03
2022-10-14T18:59:24.492Z,100710.28
2022-10-14T19:01:53.856Z,100712.09
2022-10-14T19:04:26.905Z,100716.44
2022-10-14T19:06:55.214Z,100707.59
2022-10-14T19:09:28.971Z,100715.53
2022-10-14T19:11:58.889Z,100710.22
2022-10-14T19:14:28.644Z,100721.28
2022-10-14T19:16:57.092Z,100709.31
2022-10-14T19:19:26.869Z,100711.91
2022-10-14T19:21:56.407Z,100715.56
2022-10-14T19:24:24.838Z,100716.56
2022-10-14T19:26:54.148Z,100716.78
2022-10-14T19:29:22.588Z,100716.63
2022-10-14T19:31:54.319Z,100717.59
2022-10-14T19:34:26.740Z,100709.72
2022-10-14T19:36:59.995Z,100708.03
2022-10-14T19:39:28.262Z,100706.22
2022-10-14T19:41:56.499Z,100715.31
2022-10-14T19:44:24.843Z,100708.25
2022-10-14T19:46:53.281Z,100711.91
2022-10-14T19:49:21.558Z,100711.06
2022-10-14T19:51:49.859Z,100703.81
2022-10-14T19:54:19.815Z,100705.53
2022-10-14T19:56:48.092Z,100708.28
2022-10-14T19:59:16.316Z,100703.94
2022-10-14T20:01:44.667Z,100697.75
2022-10-14T20:04:13.254Z,100686.25
2022-10-14T20:06:42.893Z,100685.50
2022-10-14T20:09:14.679Z,100683.72
2022-10-14T20:11:44.465Z,100683.91
2022-10-14T20:14:14.452Z,100679.56
2022-10-14T20:16:42.767Z,100667.38
2022-10-14T20:19:11.059Z,100690.16
2022-10-14T20:21:39.337Z,100689.31
2022-10-14T20:24:07.982Z,100688.38
2022-10-14T20:26:37.561Z,100676.09
2022-10-14T20:29:07.751Z,100679.47
2022-10-14T20:31:36.043Z,100671.38
2022-10-14T20:34:08.656Z,100672.22
2022-10-14T20:36:39.654Z,100677.47
2022-10-14T20:39:07.865Z,100678.28
2022-10-14T20:41:36.241Z,100561.38
2022-10-14T20:44:05.948Z,100676.66
2022-10-14T20:46:34.286Z,100671.25
2022-10-14T20:49:02.548Z,100678.28
2022-10-14T20:51:30.879Z,100668.41
2022-10-14T20:54:03.985Z,100665.06
2022-10-14T20:56:35.424Z,100669.59
2022-10-14T20:59:07.830Z,100672.94
2022-10-14T21:01:38.160Z,100678.22
2022-10-14T21:04:08.709Z,100681.81
2022-10-14T21:06:38.769Z,100683.63
2022-10-14T21:09:07.408Z,100668.41
2022-10-14T21:11:35.778Z,100680.78
2022-10-14T21:14:05.923Z,100681.59
2022-10-14T21:16:36.846Z,100697.69
2022-10-14T21:19:07.581Z,100680.78
2022-10-14T21:21:38.266Z,100687.91
2022-10-14T21:24:08.184Z,100584.72
2022-10-14T21:26:36.586Z,100669.38
2022-10-14T21:29:06.914Z,100672.41
2022-10-14T21:31:35.234Z,100679.06
2022-10-14T21:34:06.588Z,100671.78
2022-10-14T21:36:36.116Z,100650.06
2022-10-14T21:39:07.648Z,100663.22
2022-10-14T21:41:36.123Z,100666.53
2022-10-14T21:44:06.997Z,100663.09
2022-10-14T21:46:36.342Z,100661.25
2022-10-14T21:49:05.056Z,100658.50
2022-10-14T21:51:34.205Z,100646.97
2022-10-14T21:54:02.530Z,100653.16
2022-10-14T21:56:31.129Z,100641.44
2022-10-14T21:58:59.925Z,100652.13
2022-10-14T22:01:30.809Z,100643.16
2022-10-14T22:04:01.396Z,100639.59
2022-10-14T22:06:29.872Z,100645.75
2022-10-14T22:09:01.521Z,100642.19
2022-10-14T22:11:32.989Z,100641.22
2022-10-14T22:14:05.779Z,100638.47
2022-10-14T22:16:36.696Z,100573.88
2022-10-14T22:19:07.254Z,100643.88
2022-10-14T22:21:37.877Z,100643.97
2022-10-14T22:26:42.085Z,100626.41
2022-10-14T22:29:14.310Z,100641.09
2022-10-14T22:31:44.690Z,100632.25
2022-10-14T22:34:16.270Z,100636.72
2022-10-14T22:36:44.806Z,100634.03
2022-10-14T22:39:15.604Z,100624.38
2022-10-14T22:41:44.077Z,100626.91
2022-10-14T22:44:12.676Z,100599.72
2022-10-14T22:46:42.945Z,100617.78
2022-10-14T22:49:11.240Z,100620.47
2022-10-14T22:51:41.345Z,100619.34
2022-10-14T22:54:10.681Z,100621.97
2022-10-14T22:56:39.702Z,100621.19
2022-10-14T22:59:10.865Z,100598.47
2022-10-14T23:01:40.077Z,100619.34
2022-10-14T23:04:10.952Z,100616.00
2022-10-14T23:06:43.643Z,100612.38
2022-10-14T23:09:11.980Z,100616.06
2022-10-14T23:11:40.498Z,100609.06
2022-10-14T23:14:08.969Z,100601.97
2022-10-14T23:16:37.654Z,100613.53
2022-10-14T23:19:06.070Z,100605.50
2022-10-14T23:21:38.224Z,100603.72
2022-10-14T23:24:10.964Z,100607.50
2022-10-14T23:26:39.568Z,100612.78
2022-10-14T23:29:11.410Z,100606.53
2022-10-14T23:31:41.199Z,100612.03
2022-10-14T23:34:13.244Z,100611.19
2022-10-14T23:36:43.524Z,100609.63
2022-10-14T23:39:12.078Z,100604.22
2022-10-14T23:41:40.564Z,100601.59
2022-10-14T23:44:08.921Z,100605.03
2022-10-14T23:46:37.142Z,100605.13
2022-10-14T23:49:24.983Z,100601.53
2022-10-14T23:51:55.275Z,100599.84
2022-10-14T23:54:23.762Z,100599.84
2022-10-14T23:56:52.196Z,100597.22
2022-10-14T23:59:20.373Z,100598.03
